Time;durP1;ratioP1;P1;durP2;ratioP2;P2;SDS_P1;SDS_P2;PMS_P1;PMS_P2;Temp;Humidity;BMP_temperature;BMP_pressure;BME280_temperature;BME280_humidity;BME280_pressure;Samples;Min_cycle;Max_cycle;Signal;HPM_P1;HPM_P2
2023/07/04 00:01:05;;;;;;;;;;;;;;;19.76;100.00;99514.88;5114268;27;2022;-55
2023/07/04 00:03:33;;;;;;;;;;;;;;;19.71;100.00;99518.31;5132638;27;801;-54
2023/07/04 00:06:01;;;;;;;;;;;;;;;19.67;100.00;99520.47;5132636;27;790;-55
2023/07/04 00:08:33;;;;;;;;;;;;;;;19.66;100.00;99516.91;5132473;27;869;-54
2023/07/04 00:11:01;;;;;;;;;;;;;;;19.70;100.00;99513.97;5132863;28;861;-53
2023/07/04 00:13:29;;;;;;;;;;;;;;;19.65;100.00;99514.56;5132102;28;1986;-54
2023/07/04 00:15:57;;;;;;;;;;;;;;;19.60;100.00;99515.97;5132589;28;837;-55
2023/07/04 00:18:27;;;;;;;;;;;;;;;19.53;100.00;99513.50;5114163;28;1620;-54
2023/07/04 00:20:56;;;;;;;;;;;;;;;19.51;100.00;99510.41;5132458;28;889;-55
2023/07/04 00:23:24;;;;;;;;;;;;;;;19.49;100.00;99505.25;5132423;28;849;-55
2023/07/04 00:25:52;;;;;;;;;;;;;;;19.54;100.00;99507.44;5132438;28;852;-55
2023/07/04 00:28:18;;;;;;;;;;;;;;;19.57;100.00;99508.53;5113805;28;1302;-54
2023/07/04 00:30:45;;;;;;;;;;;;;;;19.55;100.00;99514.59;5132651;28;825;-55
2023/07/04 00:33:13;;;;;;;;;;;;;;;19.53;100.00;99507.91;5132334;27;1976;-55
2023/07/04 00:35:41;;;;;;;;;;;;;;;19.49;100.00;99515.69;5136410;27;806;-55
2023/07/04 00:38:08;;;;;;;;;;;;;;;19.46;100.00;99511.81;5136601;27;849;-55
2023/07/04 00:40:36;;;;;;;;;;;;;;;19.42;100.00;99510.44;5136364;27;798;-54
2023/07/04 00:43:04;;;;;;;;;;;;;;;19.35;100.00;99515.13;5136383;27;865;-54
2023/07/04 00:45:37;;;;;;;;;;;;;;;19.29;100.00;99511.38;5136533;27;858;-55
2023/07/04 00:48:06;;;;;;;;;;;;;;;19.28;100.00;99509.03;5136520;27;806;-54
2023/07/04 00:50:34;;;;;;;;;;;;;;;19.26;100.00;99517.16;5136640;27;806;-55
2023/07/04 00:53:04;;;;;;;;;;;;;;;19.24;100.00;99509.19;5136294;27;1889;-56
2023/07/04 00:55:33;;;;;;;;;;;;;;;19.22;100.00;99500.50;5136114;27;834;-55
2023/07/04 00:58:04;;;;;;;;;;;;;;;19.20;100.00;99505.78;5136009;27;814;-55
2023/07/04 01:00:32;;;;;;;;;;;;;;;19.17;100.00;99504.69;5136109;27;838;-54
2023/07/04 01:03:20;;;;;;;;;;;;;;;19.16;100.00;99507.97;5135888;27;901;-55
2023/07/04 01:06:11;;;;;;;;;;;;;;;19.16;100.00;99508.75;5136061;27;830;-55
2023/07/04 01:08:41;;;;;;;;;;;;;;;19.13;100.00;99498.47;5135859;27;805;-54
2023/07/04 01:11:12;;;;;;;;;;;;;;;19.13;100.00;99504.09;5135816;27;810;-54
2023/07/04 01:13:43;;;;;;;;;;;;;;;19.12;100.00;99504.56;5135742;27;1910;-54
2023/07/04 01:16:12;;;;;;;;;;;;;;;19.10;100.00;99507.84;5135675;27;841;-54
2023/07/04 01:18:44;;;;;;;;;;;;;;;19.08;100.00;99504.72;5135592;27;892;-55
2023/07/04 01:21:13;;;;;;;;;;;;;;;19.09;100.00;99503.47;5135608;27;900;-55
2023/07/04 01:23:59;;;;;;;;;;;;;;;19.10;100.00;99505.03;5135577;27;832;-55
2023/07/04 01:26:30;;;;;;;;;;;;;;;19.11;100.00;99503.00;5135411;27;790;-54
2023/07/04 01:28:58;;;;;;;;;;;;;;;19.09;100.00;99499.88;5135670;27;871;-55
2023/07/04 01:31:26;;;;;;;;;;;;;;;19.08;100.00;99504.72;5135630;27;877;-55
2023/07/04 01:33:54;;;;;;;;;;;;;;;19.06;100.00;99520.44;5135631;27;1967;-55
2023/07/04 01:36:24;;;;;;;;;;;;;;;19.03;100.00;99519.34;5135251;27;857;-56
2023/07/04 01:38:52;;;;;;;;;;;;;;;19.00;100.00;99517.47;5135478;27;945;-56
2023/07/04 01:41:20;;;;;;;;;;;;;;;18.96;100.00;99517.63;5135389;27;806;-56
2023/07/04 01:43:52;;;;;;;;;;;;;;;18.91;100.00;99518.25;5135147;27;868;-55
2023/07/04 01:46:19;;;;;;;;;;;;;;;18.88;100.00;99516.41;5134695;27;853;-55
2023/07/04 01:48:47;;;;;;;;;;;;;;;18.89;100.00;99522.78;5135107;27;798;-55
2023/07/04 01:51:15;;;;;;;;;;;;;;;18.89;100.00;99523.56;5135041;27;846;-55
2023/07/04 01:53:42;;;;;;;;;;;;;;;18.93;100.00;99520.59;5134955;27;1889;-55
2023/07/04 01:56:09;;;;;;;;;;;;;;;18.97;100.00;99518.44;5134900;27;865;-55
2023/07/04 01:58:36;;;;;;;;;;;;;;;19.02;100.00;99514.22;5135033;27;877;-55
2023/07/04 02:01:04;;;;;;;;;;;;;;;18.99;100.00;99515.94;5134955;27;806;-55
2023/07/04 02:03:31;;;;;;;;;;;;;;;18.97;100.00;99515.63;5116381;27;1174;-56
2023/07/04 02:06:00;;;;;;;;;;;;;;;18.94;100.00;99514.50;5134649;27;865;-55
2023/07/04 02:08:28;;;;;;;;;;;;;;;18.95;100.00;99518.88;5134705;27;1025;-56
2023/07/04 02:10:56;;;;;;;;;;;;;;;18.93;100.00;99512.97;5134614;27;845;-55
2023/07/04 02:13:23;;;;;;;;;;;;;;;18.92;100.00;99521.84;5134278;27;1914;-56
2023/07/04 02:15:50;;;;;;;;;;;;;;;18.90;100.00;99525.09;5116161;27;795;-55
2023/07/04 02:18:18;;;;;;;;;;;;;;;18.85;100.00;99531.31;5134499;27;838;-55
2023/07/04 02:20:45;;;;;;;;;;;;;;;18.81;100.00;99527.91;5134537;27;814;-55
2023/07/04 02:23:12;;;;;;;;;;;;;;;18.79;100.00;99535.22;5134457;27;798;-56
2023/07/04 02:25:42;;;;;;;;;;;;;;;18.79;100.00;99532.41;5134210;27;841;-56
2023/07/04 02:28:10;;;;;;;;;;;;;;;18.79;100.00;99521.22;5134355;27;881;-55
2023/07/04 02:30:37;;;;;;;;;;;;;;;18.79;100.00;99526.81;5134248;27;810;-56
2023/07/04 02:33:04;;;;;;;;;;;;;;;18.82;100.00;99531.47;5134161;27;1889;-56
2023/07/04 02:35:32;;;;;;;;;;;;;;;18.83;100.00;99533.03;5134484;27;873;-56
2023/07/04 02:38:00;;;;;;;;;;;;;;;18.85;100.00;99530.56;5134212;27;1278;-55
2023/07/04 02:40:27;;;;;;;;;;;;;;;18.89;100.00;99531.19;5134820;27;803;-55
2023/07/04 02:42:54;;;;;;;;;;;;;;;18.89;100.00;99526.34;5134542;27;834;-55
2023/07/04 02:45:22;;;;;;;;;;;;;;;18.91;100.00;99531.50;5134254;27;818;-55
2023/07/04 02:47:50;;;;;;;;;;;;;;;18.93;100.00;99531.81;5134148;27;814;-55
2023/07/04 02:50:17;;;;;;;;;;;;;;;18.94;100.00;99539.72;5133921;27;813;-55
2023/07/04 02:52:44;;;;;;;;;;;;;;;18.96;100.00;99536.47;5133825;27;1886;-56
2023/07/04 02:55:11;;;;;;;;;;;;;;;18.93;100.00;99532.56;5134022;27;846;-55
2023/07/04 02:57:38;;;;;;;;;;;;;;;18.92;100.00;99533.03;5132917;27;818;-55
2023/07/04 03:00:06;;;;;;;;;;;;;;;18.90;100.00;99533.50;5133733;27;852;-55
2023/07/04 03:02:33;;;;;;;;;;;;;;;18.90;100.00;99535.53;5115184;27;1206;-55
2023/07/04 03:05:01;;;;;;;;;;;;;;;18.89;100.00;99525.59;5133627;27;814;-55
2023/07/04 03:07:28;;;;;;;;;;;;;;;18.88;100.00;99538.81;5133608;27;845;-55
2023/07/04 03:09:56;;;;;;;;;;;;;;;18.87;100.00;99528.84;5133478;27;879;-55
2023/07/04 03:12:23;;;;;;;;;;;;;;;18.89;100.00;99528.38;5133138;27;1906;-55
2023/07/04 03:14:50;;;;;;;;;;;;;;;18.91;100.00;99532.25;5133413;27;793;-55
2023/07/04 03:17:17;;;;;;;;;;;;;;;18.98;100.00;99528.38;5133349;27;798;-55
2023/07/04 03:19:45;;;;;;;;;;;;;;;19.14;100.00;99536.47;5133325;27;790;-55
2023/07/04 03:22:12;;;;;;;;;;;;;;;19.29;100.00;99530.22;5133337;27;802;-55
2023/07/04 03:24:39;;;;;;;;;;;;;;;19.36;100.00;99527.09;5133067;27;842;-56
2023/07/04 03:27:06;;;;;;;;;;;;;;;19.43;100.00;99520.38;5133214;27;801;-55
2023/07/04 03:29:34;;;;;;;;;;;;;;;19.51;100.00;99528.00;5133202;27;873;-55
2023/07/04 03:32:01;;;;;;;;;;;;;;;19.59;100.00;99531.25;5133005;27;1893;-54
2023/07/04 03:34:28;;;;;;;;;;;;;;;19.67;100.00;99532.47;5133109;27;806;-56
2023/07/04 03:36:55;;;;;;;;;;;;;;;19.76;100.00;99535.28;5133003;27;802;-55
2023/07/04 03:39:22;;;;;;;;;;;;;;;19.86;100.00;99536.00;5132963;27;862;-56
2023/07/04 03:41:50;;;;;;;;;;;;;;;19.94;100.00;99533.66;5132935;27;873;-55
2023/07/04 03:44:18;;;;;;;;;;;;;;;20.02;100.00;99546.09;5114428;27;1637;-55
2023/07/04 03:46:45;;;;;;;;;;;;;;;20.09;100.00;99531.72;5132843;27;865;-55
2023/07/04 03:49:12;;;;;;;;;;;;;;;20.14;100.00;99542.31;5132924;27;885;-54
2023/07/04 03:51:39;;;;;;;;;;;;;;;20.21;100.00;99535.56;5132753;27;818;-54
2023/07/04 03:54:06;;;;;;;;;;;;;;;20.30;100.00;99537.53;5132614;27;1952;-55
2023/07/04 03:56:33;;;;;;;;;;;;;;;20.36;100.00;99539.22;5132904;27;846;-54
2023/07/04 03:59:01;;;;;;;;;;;;;;;20.43;100.00;99540.88;5132653;27;895;-55
2023/07/04 04:01:26;;;;;;;;;;;;;;;20.49;100.00;99541.78;5132721;27;811;-55
2023/07/04 04:03:53;;;;;;;;;;;;;;;20.55;100.00;99542.69;5132665;27;853;-55
2023/07/04 04:06:21;;;;;;;;;;;;;;;20.72;100.00;99539.50;5132588;27;842;-55
2023/07/04 04:08:49;;;;;;;;;;;;;;;20.96;100.00;99543.03;5132385;27;845;-54
2023/07/04 04:11:17;;;;;;;;;;;;;;;21.09;100.00;99539.19;5132489;27;913;-54
2023/07/04 04:13:44;;;;;;;;;;;;;;;21.13;100.00;99546.19;5132172;28;1961;-54
2023/07/04 04:16:11;;;;;;;;;;;;;;;21.25;100.00;99546.38;5132517;28;798;-54
2023/07/04 04:18:38;;;;;;;;;;;;;;;21.33;100.00;99544.75;5132476;28;802;-55
2023/07/04 04:21:07;;;;;;;;;;;;;;;21.44;100.00;99547.03;5114056;28;819;-55
2023/07/04 04:23:34;;;;;;;;;;;;;;;21.56;100.00;99543.91;5132204;28;846;-55
2023/07/04 04:26:03;;;;;;;;;;;;;;;21.72;100.00;99542.66;5132690;28;862;-53
2023/07/04 04:28:31;;;;;;;;;;;;;;;21.86;100.00;99534.69;5132397;28;965;-55
2023/07/04 04:30:58;;;;;;;;;;;;;;;22.02;100.00;99545.44;5132436;28;810;-55
2023/07/04 04:33:25;;;;;;;;;;;;;;;22.15;100.00;99550.75;5132296;28;1889;-56
2023/07/04 04:35:53;;;;;;;;;;;;;;;22.24;100.00;99547.84;5132300;28;845;-55
2023/07/04 04:38:21;;;;;;;;;;;;;;;22.35;100.00;99548.00;5132266;28;849;-54
2023/07/04 04:40:48;;;;;;;;;;;;;;;22.44;100.00;99549.91;5132165;28;857;-54
2023/07/04 04:43:15;;;;;;;;;;;;;;;22.57;100.00;99558.78;5132212;28;866;-54
2023/07/04 04:45:43;;;;;;;;;;;;;;;22.68;100.00;99554.56;5132148;28;885;-55
2023/07/04 04:48:10;;;;;;;;;;;;;;;22.81;100.00;99552.19;5132203;28;877;-54
2023/07/04 04:50:43;;;;;;;;;;;;;;;22.90;100.00;99554.88;5132125;28;865;-53
2023/07/04 04:53:14;;;;;;;;;;;;;;;23.09;100.00;99557.44;5132035;28;1885;-54
2023/07/04 04:55:42;;;;;;;;;;;;;;;23.15;100.00;99556.22;5132188;28;877;-54
2023/07/04 04:58:09;;;;;;;;;;;;;;;23.25;100.00;99565.28;5132104;28;925;-54
2023/07/04 05:00:36;;;;;;;;;;;;;;;23.38;100.00;99554.38;5132151;28;873;-55
2023/07/04 05:03:04;;;;;;;;;;;;;;;23.55;100.00;99565.06;5132101;28;837;-54
2023/07/04 05:05:31;;;;;;;;;;;;;;;23.71;100.00;99569.31;5132274;28;806;-55
2023/07/04 05:07:59;;;;;;;;;;;;;;;23.82;100.00;99569.44;5132029;28;873;-53
2023/07/04 05:10:26;;;;;;;;;;;;;;;24.01;100.00;99567.03;5132021;28;936;-53
2023/07/04 05:12:54;;;;;;;;;;;;;;;24.10;100.00;99566.84;5109819;28;2281;-53
2023/07/04 05:15:21;;;;;;;;;;;;;;;24.20;100.00;99573.09;5111620;28;857;-53
2023/07/04 05:17:48;;;;;;;;;;;;;;;24.36;100.00;99563.94;5111371;28;849;-52
2023/07/04 05:20:22;;;;;;;;;;;;;;;24.53;100.00;99566.13;5112928;28;838;-53
2023/07/04 05:22:56;;;;;;;;;;;;;;;24.77;100.00;99571.38;5115038;27;849;-53
2023/07/04 05:25:24;;;;;;;;;;;;;;;25.02;100.00;99567.63;5115089;28;873;-53
2023/07/04 05:27:51;;;;;;;;;;;;;;;25.27;100.00;99565.94;5113734;28;936;-53
2023/07/04 05:30:19;;;;;;;;;;;;;;;25.55;100.00;99570.88;5115090;28;782;-51
2023/07/04 05:32:45;;;;;;;;;;;;;;;25.93;100.00;99571.44;5114821;28;1885;-53
2023/07/04 05:35:12;;;;;;;;;;;;;;;26.39;100.00;99563.66;5114870;28;858;-55
2023/07/04 05:37:39;;;;;;;;;;;;;;;26.81;100.00;99573.84;5115180;28;798;-54
2023/07/04 05:40:08;;;;;;;;;;;;;;;27.08;100.00;99574.28;5114697;28;867;-54
2023/07/04 05:42:36;;;;;;;;;;;;;;;27.26;100.00;99570.84;5114637;28;952;-54
2023/07/04 05:45:03;;;;;;;;;;;;;;;27.42;100.00;99572.03;5114662;28;892;-55
2023/07/04 05:47:30;;;;;;;;;;;;;;;27.76;100.00;99574.66;5114568;28;853;-51
2023/07/04 05:49:58;;;;;;;;;;;;;;;27.90;100.00;99579.19;5114638;28;853;-54
2023/07/04 05:52:26;;;;;;;;;;;;;;;28.06;100.00;99582.44;5114373;28;1881;-54
2023/07/04 05:54:53;;;;;;;;;;;;;;;28.15;99.06;99579.25;5114452;28;823;-53
2023/07/04 05:57:20;;;;;;;;;;;;;;;28.65;98.60;99586.50;5114568;28;865;-53
2023/07/04 05:59:48;;;;;;;;;;;;;;;29.23;94.27;99581.69;5114409;28;786;-54
2023/07/04 06:02:15;;;;;;;;;;;;;;;29.32;92.74;99584.16;5112952;28;823;-54
2023/07/04 06:04:42;;;;;;;;;;;;;;;29.37;93.37;99588.22;5114348;28;827;-53
2023/07/04 06:07:09;;;;;;;;;;;;;;;29.72;92.35;99587.19;5114265;28;857;-54
2023/07/04 06:09:37;;;;;;;;;;;;;;;30.05;89.71;99585.13;5114197;28;845;-53
2023/07/04 06:12:07;;;;;;;;;;;;;;;30.14;87.46;99584.69;5117469;27;1929;-53
2023/07/04 06:14:34;;;;;;;;;;;;;;;30.35;86.04;99595.53;5134567;27;866;-54
2023/07/04 06:17:04;;;;;;;;;;;;;;;30.63;79.00;99595.00;5134829;27;865;-54
2023/07/04 06:19:32;;;;;;;;;;;;;;;30.96;76.51;99596.44;5134823;27;876;-53
2023/07/04 06:22:02;;;;;;;;;;;;;;;31.32;71.99;99595.91;5134752;27;802;-55
2023/07/04 06:24:29;;;;;;;;;;;;;;;31.87;68.17;99601.66;5134411;27;905;-53
2023/07/04 06:26:57;;;;;;;;;;;;;;;32.38;62.78;99596.78;5134542;27;798;-54
2023/07/04 06:29:24;;;;;;;;;;;;;;;32.51;61.73;99599.53;5134596;27;905;-53
2023/07/04 06:31:52;;;;;;;;;;;;;;;32.88;60.36;99595.41;5134283;27;852;-49
2023/07/04 06:34:19;;;;;;;;;;;;;;;33.28;59.43;99600.00;5134284;27;794;-53
2023/07/04 06:36:49;;;;;;;;;;;;;;;33.39;57.61;99588.19;5134144;27;856;-53
2023/07/04 06:39:16;;;;;;;;;;;;;;;33.55;57.58;99594.72;5134057;27;960;-55
2023/07/04 06:41:43;;;;;;;;;;;;;;;33.80;56.20;99594.22;5115627;27;860;-54
2023/07/04 06:44:10;;;;;;;;;;;;;;;33.58;55.61;99592.81;5134056;27;786;-56
2023/07/04 06:46:38;;;;;;;;;;;;;;;33.80;55.93;99594.22;5134003;27;851;-56
2023/07/04 06:49:06;;;;;;;;;;;;;;;34.17;54.11;99592.75;5133934;27;942;-56
2023/07/04 06:51:33;;;;;;;;;;;;;;;34.91;51.85;99591.69;5133867;27;876;-56
2023/07/04 06:54:01;;;;;;;;;;;;;;;35.49;49.44;99594.72;5133730;27;1897;-56
2023/07/04 06:56:30;;;;;;;;;;;;;;;35.75;46.63;99595.53;5133771;27;973;-56
2023/07/04 06:58:57;;;;;;;;;;;;;;;35.39;45.96;99593.81;5115382;27;1198;-56
2023/07/04 07:01:28;;;;;;;;;;;;;;;35.52;45.00;99592.78;5133655;27;897;-56
2023/07/04 07:03:54;;;;;;;;;;;;;;;35.89;44.31;99593.13;5133671;27;896;-56
2023/07/04 07:06:21;;;;;;;;;;;;;;;36.25;44.42;99592.66;5133594;27;857;-56
2023/07/04 07:08:48;;;;;;;;;;;;;;;36.30;42.72;99593.78;5133546;27;802;-56
2023/07/04 07:11:17;;;;;;;;;;;;;;;36.38;41.64;99588.69;5133455;27;809;-56
2023/07/04 07:13:46;;;;;;;;;;;;;;;36.44;41.11;99586.34;5133165;27;1909;-56
2023/07/04 07:16:15;;;;;;;;;;;;;;;36.23;41.45;99594.59;5133268;27;924;-56
2023/07/04 07:18:43;;;;;;;;;;;;;;;36.30;40.94;99590.91;5133763;27;802;-56
2023/07/04 07:21:12;;;;;;;;;;;;;;;36.45;40.52;99599.41;5133347;27;863;-56
2023/07/04 07:23:40;;;;;;;;;;;;;;;37.11;40.11;99593.34;5133294;27;865;-56
2023/07/04 07:26:09;;;;;;;;;;;;;;;37.56;37.37;99594.09;5114855;27;1325;-56
2023/07/04 07:28:39;;;;;;;;;;;;;;;37.61;36.74;99600.97;5133134;27;822;-56
2023/07/04 07:31:18;;;;;;;;;;;;;;;37.52;36.51;99600.28;5114793;27;1182;-56
2023/07/04 07:33:48;;;;;;;;;;;;;;;37.86;35.88;99601.53;5133163;27;2262;-56
2023/07/04 07:36:18;;;;;;;;;;;;;;;38.33;35.17;99607.34;5133142;27;843;-56
2023/07/04 07:38:46;;;;;;;;;;;;;;;38.94;33.99;99608.31;5133034;27;782;-56
2023/07/04 07:41:14;;;;;;;;;;;;;;;39.00;33.79;99611.69;5133005;27;802;-56
2023/07/04 07:43:42;;;;;;;;;;;;;;;38.40;34.30;99615.84;5132477;27;830;-56
2023/07/04 07:46:11;;;;;;;;;;;;;;;38.72;34.08;99611.06;5132867;27;873;-55
2023/07/04 07:48:38;;;;;;;;;;;;;;;38.68;34.36;99607.09;5132675;27;875;-56
2023/07/04 07:51:09;;;;;;;;;;;;;;;38.80;34.25;99605.91;5132703;27;909;-55
2023/07/04 07:53:37;;;;;;;;;;;;;;;39.36;33.33;99602.06;5132885;27;1967;-56
2023/07/04 07:56:06;;;;;;;;;;;;;;;38.65;33.91;99605.44;5132746;27;826;-54
2023/07/04 07:58:34;;;;;;;;;;;;;;;38.52;34.12;99600.88;5132725;27;826;-53
2023/07/04 08:01:22;;;;;;;;;;;;;;;38.74;33.39;99608.31;5132653;27;846;-53
2023/07/04 08:03:48;;;;;;;;;;;;;;;39.55;32.48;99600.53;5132312;27;1836;-50
2023/07/04 08:06:25;;;;;;;;;;;;;;;39.54;32.17;99599.00;5132555;27;850;-55
2023/07/04 08:08:53;;;;;;;;;;;;;;;38.99;32.38;99610.94;5132462;27;803;-52
2023/07/04 08:11:21;;;;;;;;;;;;;;;37.92;34.38;99604.91;5132509;27;1082;-53
2023/07/04 08:13:48;;;;;;;;;;;;;;;37.84;34.22;99604.25;5132213;27;1905;-54
2023/07/04 08:16:20;;;;;;;;;;;;;;;36.12;36.70;99605.19;5132469;28;900;-55
2023/07/04 08:18:47;;;;;;;;;;;;;;;35.03;38.89;99597.75;5132424;28;838;-55
2023/07/04 08:21:15;;;;;;;;;;;;;;;36.72;37.33;99595.88;5132437;28;965;-55
2023/07/04 08:23:43;;;;;;;;;;;;;;;36.37;36.66;99602.34;5132407;28;873;-54
2023/07/04 08:26:21;;;;;;;;;;;;;;;35.91;37.91;99605.59;5132412;28;837;-55
2023/07/04 08:28:48;;;;;;;;;;;;;;;35.75;37.55;99596.28;5132306;28;909;-55
2023/07/04 08:31:18;;;;;;;;;;;;;;;36.11;37.67;99600.81;5132261;28;932;-55
2023/07/04 08:33:46;;;;;;;;;;;;;;;34.96;39.83;99601.44;5132140;28;1960;-54
2023/07/04 08:36:15;;;;;;;;;;;;;;;35.11;39.53;99592.00;5132378;28;805;-52
2023/07/04 08:38:43;;;;;;;;;;;;;;;35.59;39.97;99597.69;5132287;28;818;-54
2023/07/04 08:41:31;;;;;;;;;;;;;;;36.95;37.46;99589.84;5132367;28;845;-53
2023/07/04 08:44:05;;;;;;;;;;;;;;;37.87;35.21;99596.53;5103082;28;1370;-53
2023/07/04 08:46:38;;;;;;;;;;;;;;;38.15;33.79;99598.00;5132675;28;829;-55
2023/07/04 08:49:07;;;;;;;;;;;;;;;38.47;32.40;99601.88;5132045;28;1018;-54
2023/07/04 08:51:40;;;;;;;;;;;;;;;38.91;31.58;99604.53;5132322;28;790;-55
2023/07/04 08:54:10;;;;;;;;;;;;;;;39.38;31.82;99598.56;5132339;27;1952;-56
2023/07/04 08:56:39;;;;;;;;;;;;;;;39.92;31.74;99598.13;5135926;27;836;-57
2023/07/04 08:59:10;;;;;;;;;;;;;;;39.08;31.94;99594.22;5136132;27;815;-56
2023/07/04 09:01:46;;;;;;;;;;;;;;;38.90;32.10;99602.25;5136172;27;873;-56
2023/07/04 09:04:18;;;;;;;;;;;;;;;38.93;31.44;99606.81;5136068;27;801;-56
2023/07/04 09:06:57;;;;;;;;;;;;;;;39.15;30.49;99599.81;5135931;27;791;-56
2023/07/04 09:09:26;;;;;;;;;;;;;;;39.30;30.64;99589.31;5135903;27;894;-56
2023/07/04 09:11:54;;;;;;;;;;;;;;;38.93;30.11;99592.38;5135526;27;1184;-56
2023/07/04 09:14:47;;;;;;;;;;;;;;;39.13;30.34;99599.66;5135757;27;1922;-56
2023/07/04 09:17:24;;;;;;;;;;;;;;;38.90;31.05;99599.34;5104224;27;1140;-56
2023/07/04 09:19:52;;;;;;;;;;;;;;;38.15;32.15;99601.69;5117344;27;887;-56
2023/07/04 09:22:19;;;;;;;;;;;;;;;37.95;32.88;99600.06;5135602;27;837;-56
2023/07/04 09:24:48;;;;;;;;;;;;;;;37.87;32.71;99602.28;5135669;27;849;-56
2023/07/04 09:27:16;;;;;;;;;;;;;;;38.07;32.93;99603.94;5135743;27;940;-56
2023/07/04 09:29:43;;;;;;;;;;;;;;;38.40;32.18;99604.28;5135499;27;897;-55
2023/07/04 09:32:12;;;;;;;;;;;;;;;38.43;31.97;99605.25;5135728;27;1885;-56
2023/07/04 09:34:49;;;;;;;;;;;;;;;37.43;33.71;99606.75;5135353;27;874;-56
2023/07/04 09:37:19;;;;;;;;;;;;;;;36.70;34.72;99601.47;5135360;27;806;-55
2023/07/04 09:39:47;;;;;;;;;;;;;;;35.33;35.67;99599.75;5135386;27;1109;-55
2023/07/04 10:14:00;;;;;;;;;;;;;;;34.77;38.88;99588.28;5225435;22;1855;-62
2023/07/04 10:16:27;;;;;;;;;;;;;;;35.52;39.32;99593.53;5033656;28;849;-61
2023/07/04 10:19:10;;;;;;;;;;;;;;;35.75;40.70;99589.78;5033595;28;822;-61
2023/07/04 10:21:53;;;;;;;;;;;;;;;34.82;43.40;99586.53;5033699;28;861;-62
2023/07/04 10:24:22;;;;;;;;;;;;;;;33.63;47.38;99589.03;5033429;28;854;-63
2023/07/04 10:26:54;;;;;;;;;;;;;;;33.13;50.12;99595.72;5032444;28;1169;-63
2023/07/04 10:29:30;;;;;;;;;;;;;;;32.99;51.00;99593.53;5033344;28;865;-63
2023/07/04 10:31:59;;;;;;;;;;;;;;;32.79;52.04;99590.19;5033331;28;849;-62
2023/07/04 10:34:27;;;;;;;;;;;;;;;32.90;52.36;99589.91;5033189;28;1906;-62
2023/07/04 10:36:55;;;;;;;;;;;;;;;33.19;52.54;99592.72;5033135;28;861;-62
2023/07/04 10:39:22;;;;;;;;;;;;;;;34.10;49.85;99579.91;5033123;28;873;-61
2023/07/04 10:41:50;;;;;;;;;;;;;;;34.66;47.43;99576.47;5033067;28;906;-62
2023/07/04 10:44:22;;;;;;;;;;;;;;;34.67;47.68;99577.97;5033015;28;842;-62
2023/07/04 10:47:12;;;;;;;;;;;;;;;34.55;46.47;99580.47;5032930;28;913;-62
2023/07/04 10:49:43;;;;;;;;;;;;;;;34.96;45.25;99575.59;5032842;28;1566;-62
2023/07/04 10:52:15;;;;;;;;;;;;;;;34.81;45.04;99576.41;5032858;28;1906;-62
2023/07/04 10:54:42;;;;;;;;;;;;;;;35.15;44.96;99575.16;5032870;28;862;-61
2023/07/04 10:57:14;;;;;;;;;;;;;;;35.54;44.10;99576.47;5032811;28;881;-62
2023/07/04 10:59:44;;;;;;;;;;;;;;;35.28;44.57;99577.78;5032821;28;940;-62
2023/07/04 11:02:24;;;;;;;;;;;;;;;35.14;44.47;99570.75;5032920;28;838;-62
2023/07/04 11:04:54;;;;;;;;;;;;;;;34.64;44.84;99574.16;5032679;28;850;-63
2023/07/04 11:07:23;;;;;;;;;;;;;;;34.61;44.29;99581.03;5032565;28;826;-61
2023/07/04 11:09:54;;;;;;;;;;;;;;;34.40;44.78;99581.25;5032560;28;869;-62
2023/07/04 11:12:23;;;;;;;;;;;;;;;34.26;45.38;99588.53;5032492;28;1979;-62
2023/07/04 11:14:50;;;;;;;;;;;;;;;33.44;46.93;99586.50;5032076;28;1267;-64
2023/07/04 11:17:20;;;;;;;;;;;;;;;32.85;48.43;99581.47;5031884;28;802;-63
2023/07/04 11:19:55;;;;;;;;;;;;;;;32.30;49.54;99582.41;5032393;28;806;-63
2023/07/04 11:22:44;;;;;;;;;;;;;;;31.99;51.36;99584.28;5032474;28;807;-63
2023/07/04 11:25:30;;;;;;;;;;;;;;;31.82;51.88;99582.56;5028409;28;1088;-62
2023/07/04 11:28:16;;;;;;;;;;;;;;;31.91;51.73;99581.31;5032230;28;818;-62
2023/07/04 11:30:47;;;;;;;;;;;;;;;32.89;49.73;99573.28;5032149;28;858;-63
2023/07/04 11:33:33;;;;;;;;;;;;;;;34.29;46.17;99567.31;5032051;28;1975;-63
2023/07/04 11:36:07;;;;;;;;;;;;;;;35.01;44.38;99577.47;5032426;28;830;-63
2023/07/04 11:38:36;;;;;;;;;;;;;;;35.04;44.41;99564.84;5032288;28;815;-63
2023/07/04 11:41:03;;;;;;;;;;;;;;;35.85;42.63;99558.25;5032000;28;905;-63
2023/07/04 11:43:34;;;;;;;;;;;;;;;36.12;41.21;99555.56;5032186;28;818;-62
2023/07/04 11:46:03;;;;;;;;;;;;;;;36.66;40.31;99558.72;5031831;28;853;-61
2023/07/04 11:48:31;;;;;;;;;;;;;;;36.88;39.33;99556.91;5031913;28;954;-62
2023/07/04 11:51:06;;;;;;;;;;;;;;;36.44;40.40;99548.19;5031921;28;806;-62
2023/07/04 11:53:39;;;;;;;;;;;;;;;35.95;40.07;99562.03;5031840;28;1890;-64
2023/07/04 11:56:18;;;;;;;;;;;;;;;35.30;41.82;99559.97;5031896;28;842;-64
2023/07/04 11:58:46;;;;;;;;;;;;;;;36.17;40.64;99563.22;5031732;28;822;-63
2023/07/04 12:01:14;;;;;;;;;;;;;;;36.27;39.54;99566.94;5031639;28;960;-63
2023/07/04 12:03:54;;;;;;;;;;;;;;;36.89;38.29;99554.78;5031692;28;886;-63
2023/07/04 12:06:52;;;;;;;;;;;;;;;37.19;37.54;99568.84;5031740;28;920;-64
2023/07/04 12:09:30;;;;;;;;;;;;;;;36.66;38.16;99558.72;5019436;28;1377;-62
2023/07/04 12:11:57;;;;;;;;;;;;;;;35.40;39.57;99549.38;5031682;28;1073;-63
2023/07/04 12:14:25;;;;;;;;;;;;;;;34.27;42.14;99550.69;5031192;28;1886;-63
2023/07/04 12:16:56;;;;;;;;;;;;;;;33.38;44.42;99555.16;5031614;28;921;-63
2023/07/04 12:19:21;;;;;;;;;;;;;;;32.77;46.08;99549.94;5031568;28;865;-63
2023/07/04 12:21:50;;;;;;;;;;;;;;;32.68;46.13;99541.88;5031514;28;892;-65
2023/07/04 12:24:22;;;;;;;;;;;;;;;33.32;45.23;99543.88;5031554;28;861;-62
2023/07/04 12:26:54;;;;;;;;;;;;;;;34.36;42.70;99544.34;5031509;28;869;-64
2023/07/04 12:29:22;;;;;;;;;;;;;;;33.74;43.38;99545.72;5033285;28;862;-63
2023/07/04 12:32:00;;;;;;;;;;;;;;;34.30;42.50;99538.06;5035613;28;845;-64
2023/07/04 12:34:28;;;;;;;;;;;;;;;36.02;39.67;99528.78;5035457;28;1910;-65
2023/07/04 12:37:02;;;;;;;;;;;;;;;37.13;37.66;99542.44;5035454;28;873;-64
2023/07/04 12:39:30;;;;;;;;;;;;;;;37.77;36.49;99536.69;5035926;28;806;-64
2023/07/04 12:41:57;;;;;;;;;;;;;;;38.17;35.25;99523.16;5035580;28;930;-66
2023/07/04 12:44:24;;;;;;;;;;;;;;;37.98;34.97;99539.03;5035293;28;977;-64
2023/07/04 12:46:52;;;;;;;;;;;;;;;37.90;35.56;99529.75;5035296;28;798;-65
2023/07/04 12:49:20;;;;;;;;;;;;;;;36.55;37.29;99530.41;5035370;28;827;-63
2023/07/04 12:51:47;;;;;;;;;;;;;;;34.86;39.62;99532.38;5035251;28;791;-63
2023/07/04 12:54:15;;;;;;;;;;;;;;;35.30;39.63;99531.25;5035294;28;1941;-63
2023/07/04 12:56:44;;;;;;;;;;;;;;;35.94;38.10;99523.88;5035173;28;881;-64
2023/07/04 12:59:33;;;;;;;;;;;;;;;36.36;37.56;99528.91;5034950;28;898;-64
2023/07/04 13:02:03;;;;;;;;;;;;;;;36.66;36.58;99520.53;5033703;28;1200;-64
2023/07/04 13:04:30;;;;;;;;;;;;;;;36.82;35.66;99521.88;5034990;28;881;-64
2023/07/04 13:06:58;;;;;;;;;;;;;;;37.46;35.85;99512.56;5034944;28;858;-66
2023/07/04 13:09:25;;;;;;;;;;;;;;;37.70;34.36;99511.63;5035075;28;775;-66
2023/07/04 13:11:53;;;;;;;;;;;;;;;36.95;34.60;99515.75;5034826;28;907;-65
2023/07/04 13:14:25;;;;;;;;;;;;;;;36.90;34.48;99524.66;5034576;28;1985;-64
2023/07/04 13:17:06;;;;;;;;;;;;;;;36.68;35.51;99514.94;5034644;28;814;-64
2023/07/04 13:19:34;;;;;;;;;;;;;;;36.83;35.82;99516.84;5034731;28;842;-63
2023/07/04 13:22:11;;;;;;;;;;;;;;;37.19;35.24;99513.34;5034628;28;870;-63
2023/07/04 13:24:40;;;;;;;;;;;;;;;36.99;34.92;99512.44;5034814;28;870;-63
2023/07/04 13:27:14;;;;;;;;;;;;;;;36.55;36.16;99518.88;5034626;28;850;-64
2023/07/04 13:29:58;;;;;;;;;;;;;;;36.25;35.64;99515.00;5034467;28;806;-64
2023/07/04 13:32:27;;;;;;;;;;;;;;;36.16;36.84;99507.03;5034364;28;1911;-64
2023/07/04 13:34:55;;;;;;;;;;;;;;;36.18;36.88;99505.09;5034407;28;846;-65
2023/07/04 13:37:22;;;;;;;;;;;;;;;36.06;37.85;99509.81;5034371;28;858;-64
2023/07/04 13:39:49;;;;;;;;;;;;;;;36.06;37.66;99509.00;5034402;28;857;-62
2023/07/04 13:42:16;;;;;;;;;;;;;;;35.95;37.59;99507.38;5033621;28;861;-63
2023/07/04 13:44:45;;;;;;;;;;;;;;;35.93;37.87;99504.34;5034238;28;861;-63